Time;durP1;ratioP1;P1;durP2;ratioP2;P2;SDS_P1;SDS_P2;PMS_P1;PMS_P2;Temp;Humidity;BMP_temperature;BMP_pressure;BME280_temperature;BME280_humidity;BME280_pressure;Samples;Min_cycle;Max_cycle;Signal;HPM_P1;HPM_P2
2023/09/18 00:00:58;;;;;;;27.63;24.50;;;;;;;;;;5072487;28;20036;-61
2023/09/18 00:03:26;;;;;;;29.88;26.60;;;;;;;;;;5073485;28;20032;-61
2023/09/18 00:05:52;;;;;;;27.90;25.13;;;;;;;;;;5071354;28;20041;-61
2023/09/18 00:08:17;;;;;;;27.10;23.05;;;;;;;;;;5073674;28;20027;-60
2023/09/18 00:10:46;;;;;;;25.55;21.55;;;;;;;;;;5071802;28;20394;-61
2023/09/18 00:13:12;;;;;;;26.15;23.35;;;;;;;;;;5073122;28;20073;-61
2023/09/18 00:15:38;;;;;;;29.25;24.75;;;;;;;;;;5071015;28;20044;-61
2023/09/18 00:18:03;;;;;;;25.83;23.08;;;;;;;;;;5073598;28;20020;-61
2023/09/18 00:20:28;;;;;;;26.27;23.50;;;;;;;;;;5071871;28;20494;-62
2023/09/18 00:22:54;;;;;;;25.20;21.65;;;;;;;;;;5073052;28;20585;-60
2023/09/18 00:25:20;;;;;;;26.75;23.98;;;;;;;;;;5071820;28;20026;-68
2023/09/18 00:27:45;;;;;;;31.63;25.70;;;;;;;;;;5072667;28;20099;-60
2023/09/18 00:30:11;;;;;;;24.70;22.23;;;;;;;;;;5071582;28;20383;-60
2023/09/18 00:32:36;;;;;;;24.23;21.92;;;;;;;;;;5072853;28;20029;-61
2023/09/18 00:35:01;;;;;;;24.20;21.43;;;;;;;;;;5072907;28;20020;-61
2023/09/18 00:37:28;;;;;;;22.05;19.75;;;;;;;;;;5071401;28;20045;-60
2023/09/18 00:39:53;;;;;;;29.20;22.38;;;;;;;;;;5072843;28;20135;-61
2023/09/18 00:42:18;;;;;;;23.70;21.20;;;;;;;;;;5071012;28;20127;-60
2023/09/18 00:44:44;;;;;;;25.77;22.25;;;;;;;;;;5072250;28;20371;-60
2023/09/18 00:47:09;;;;;;;22.40;20.20;;;;;;;;;;5071413;28;20053;-60
2023/09/18 00:49:36;;;;;;;24.77;21.45;;;;;;;;;;5072339;28;20376;-60
2023/09/18 00:52:02;;;;;;;22.98;20.73;;;;;;;;;;5071555;28;20032;-61
2023/09/18 00:54:27;;;;;;;24.40;20.00;;;;;;;;;;5072822;28;20700;-69
2023/09/18 00:56:53;;;;;;;24.08;21.60;;;;;;;;;;5070488;28;20128;-60
2023/09/18 00:59:19;;;;;;;25.17;20.25;;;;;;;;;;5072934;28;20052;-66
2023/09/18 01:01:44;;;;;;;24.60;19.77;;;;;;;;;;5069439;28;20535;-60
2023/09/18 01:04:09;;;;;;;21.73;18.90;;;;;;;;;;5071458;28;20656;-61
2023/09/18 01:06:35;;;;;;;23.50;18.92;;;;;;;;;;5070520;28;20041;-60
2023/09/18 01:09:04;;;;;;;23.00;20.02;;;;;;;;;;5072475;28;20046;-60
2023/09/18 01:11:33;;;;;;;22.35;19.98;;;;;;;;;;5070656;28;20039;-60
2023/09/18 01:14:06;;;;;;;17.83;16.08;;;;;;;;;;5070160;28;20027;-61
2023/09/18 01:16:39;;;;;;;19.58;17.48;;;;;;;;;;5069807;28;20036;-61
2023/09/18 01:19:04;;;;;;;20.92;18.67;;;;;;;;;;5071857;28;20066;-60
2023/09/18 01:21:29;;;;;;;25.57;19.30;;;;;;;;;;5070738;28;20527;-60
2023/09/18 01:23:54;;;;;;;20.45;18.38;;;;;;;;;;5072003;28;20016;-60
2023/09/18 01:26:19;;;;;;;19.80;17.58;;;;;;;;;;5070236;28;20051;-61
2023/09/18 01:28:45;;;;;;;18.77;16.90;;;;;;;;;;5071902;28;20024;-61
2023/09/18 01:31:10;;;;;;;22.07;19.17;;;;;;;;;;5070565;28;20036;-60
2023/09/18 01:33:36;;;;;;;19.53;17.43;;;;;;;;;;5071283;28;20103;-60
2023/09/18 01:36:03;;;;;;;25.38;19.38;;;;;;;;;;5070588;28;21016;-72
2023/09/18 01:38:28;;;;;;;27.35;18.60;;;;;;;;;;5071700;28;20020;-64
2023/09/18 01:40:53;;;;;;;21.65;19.48;;;;;;;;;;5069519;28;20043;-60
2023/09/18 01:43:19;;;;;;;20.40;18.05;;;;;;;;;;5071756;28;20074;-60
2023/09/18 01:45:44;;;;;;;19.60;17.53;;;;;;;;;;5069826;28;20024;-60
2023/09/18 01:48:09;;;;;;;20.27;18.17;;;;;;;;;;5071375;28;20422;-60
2023/09/18 01:50:36;;;;;;;19.50;17.27;;;;;;;;;;5069408;28;20048;-60
2023/09/18 01:53:01;;;;;;;22.77;16.95;;;;;;;;;;5071129;28;20039;-61
2023/09/18 01:55:28;;;;;;;19.55;16.58;;;;;;;;;;5069671;28;20115;-61
2023/09/18 01:57:53;;;;;;;18.63;16.58;;;;;;;;;;5071064;28;20491;-60
2023/09/18 02:00:19;;;;;;;18.53;16.53;;;;;;;;;;5070174;28;20019;-60
2023/09/18 02:02:44;;;;;;;24.90;15.87;;;;;;;;;;5070985;28;20024;-61
2023/09/18 02:05:09;;;;;;;17.13;14.13;;;;;;;;;;5070056;28;20024;-60
2023/09/18 02:07:35;;;;;;;17.20;15.50;;;;;;;;;;5070907;28;20380;-60
2023/09/18 02:10:00;;;;;;;25.42;15.45;;;;;;;;;;5071028;28;20423;-61
2023/09/18 02:12:25;;;;;;;20.20;16.40;;;;;;;;;;5069685;28;20041;-62
2023/09/18 02:14:50;;;;;;;18.38;14.95;;;;;;;;;;5070888;28;20055;-60
2023/09/18 02:17:16;;;;;;;17.17;15.37;;;;;;;;;;5069318;28;20257;-62
2023/09/18 02:19:41;;;;;;;17.00;14.07;;;;;;;;;;5071084;28;21009;-59
2023/09/18 02:22:06;;;;;;;16.93;15.03;;;;;;;;;;5069285;28;20653;-61
2023/09/18 02:24:31;;;;;;;22.45;16.17;;;;;;;;;;5071013;28;20427;-61
2023/09/18 02:26:56;;;;;;;22.10;14.25;;;;;;;;;;5068984;28;20381;-61
2023/09/18 02:29:22;;;;;;;14.20;12.70;;;;;;;;;;5071219;28;20025;-61
2023/09/18 02:31:48;;;;;;;20.13;14.93;;;;;;;;;;5068961;28;20098;-61
2023/09/18 02:34:13;;;;;;;15.87;13.87;;;;;;;;;;5069070;28;20459;-60
2023/09/18 02:36:38;;;;;;;17.77;13.90;;;;;;;;;;5058688;28;20091;-60
2023/09/18 02:39:03;;;;;;;19.85;13.18;;;;;;;;;;5050491;28;20045;-60
2023/09/18 02:41:28;;;;;;;15.20;12.15;;;;;;;;;;5054157;28;20056;-60
2023/09/18 02:43:53;;;;;;;14.37;12.83;;;;;;;;;;5070363;28;20020;-68
2023/09/18 02:46:19;;;;;;;14.68;12.60;;;;;;;;;;5069430;28;20036;-61
2023/09/18 02:48:44;;;;;;;16.17;12.55;;;;;;;;;;5065606;28;20091;-73
2023/09/18 02:51:09;;;;;;;17.20;13.87;;;;;;;;;;5031857;28;20377;-61
2023/09/18 02:53:34;;;;;;;23.55;12.60;;;;;;;;;;5061819;28;20035;-61
2023/09/18 02:55:59;;;;;;;13.48;12.10;;;;;;;;;;5068833;28;20487;-61
2023/09/18 02:58:26;;;;;;;15.88;12.98;;;;;;;;;;5070626;28;20380;-60
2023/09/18 03:00:51;;;;;;;13.98;12.43;;;;;;;;;;5068462;28;20029;-62
2023/09/18 03:03:17;;;;;;;16.85;13.00;;;;;;;;;;5069869;28;20036;-61
2023/09/18 03:05:42;;;;;;;22.02;11.75;;;;;;;;;;5070253;28;20021;-61
2023/09/18 03:08:08;;;;;;;13.10;11.77;;;;;;;;;;5068943;28;20086;-62
2023/09/18 03:10:34;;;;;;;13.35;10.95;;;;;;;;;;5069555;28;20023;-62
2023/09/18 03:13:00;;;;;;;16.13;10.65;;;;;;;;;;5068862;28;20036;-63
2023/09/18 03:15:25;;;;;;;13.25;11.95;;;;;;;;;;5070665;28;20024;-63
2023/09/18 03:17:50;;;;;;;20.88;12.60;;;;;;;;;;5068294;28;20084;-63
2023/09/18 03:20:15;;;;;;;13.60;12.17;;;;;;;;;;5051645;28;20056;-62
2023/09/18 03:22:40;;;;;;;22.52;13.10;;;;;;;;;;5063494;28;20050;-63
2023/09/18 03:25:06;;;;;;;13.70;11.07;;;;;;;;;;5070079;28;20012;-72
2023/09/18 03:27:31;;;;;;;17.20;13.00;;;;;;;;;;5068409;28;20074;-62
2023/09/18 03:29:57;;;;;;;13.95;10.77;;;;;;;;;;5070505;28;20009;-62
2023/09/18 03:32:22;;;;;;;12.60;10.90;;;;;;;;;;5068490;28;20178;-62
2023/09/18 03:34:50;;;;;;;14.03;11.80;;;;;;;;;;5069449;28;20047;-62
2023/09/18 03:37:15;;;;;;;14.85;11.23;;;;;;;;;;5068701;28;20039;-62
2023/09/18 03:39:40;;;;;;;20.55;12.02;;;;;;;;;;5069483;28;20052;-62
2023/09/18 03:42:05;;;;;;;12.00;10.80;;;;;;;;;;5068491;28;20028;-62
2023/09/18 03:44:31;;;;;;;17.83;11.03;;;;;;;;;;5062737;28;20360;-62
2023/09/18 03:46:57;;;;;;;10.85;9.82;;;;;;;;;;5063179;28;20598;-61
2023/09/18 03:49:22;;;;;;;12.00;9.63;;;;;;;;;;5069559;28;20017;-63
2023/09/18 03:51:47;;;;;;;12.70;11.30;;;;;;;;;;5068354;28;20041;-61
2023/09/18 03:54:12;;;;;;;12.67;9.10;;;;;;;;;;5069650;28;20332;-62
2023/09/18 03:56:37;;;;;;;10.15;8.75;;;;;;;;;;5068234;28;20033;-62
2023/09/18 03:59:04;;;;;;;16.50;10.05;;;;;;;;;;5069972;28;20442;-61
2023/09/18 04:01:29;;;;;;;10.75;8.02;;;;;;;;;;5068273;28;20064;-63
2023/09/18 04:03:54;;;;;;;10.33;8.07;;;;;;;;;;5069500;28;20075;-61
2023/09/18 04:06:20;;;;;;;11.00;8.57;;;;;;;;;;5068243;28;20032;-61
2023/09/18 04:08:46;;;;;;;13.43;7.90;;;;;;;;;;5069209;28;20146;-61
2023/09/18 04:11:11;;;;;;;10.10;8.93;;;;;;;;;;5068361;28;20058;-64
2023/09/18 04:13:37;;;;;;;8.33;7.30;;;;;;;;;;5057249;28;20430;-59
2023/09/18 04:16:03;;;;;;;14.38;8.55;;;;;;;;;;5056407;28;20574;-59
2023/09/18 04:18:29;;;;;;;17.27;7.28;;;;;;;;;;5053392;28;20115;-62
2023/09/18 04:20:54;;;;;;;7.65;6.90;;;;;;;;;;5054864;28;20116;-59
2023/09/18 04:23:21;;;;;;;16.67;8.00;;;;;;;;;;5052930;28;20032;-59
2023/09/18 04:25:46;;;;;;;15.35;6.43;;;;;;;;;;5057094;28;20570;-60
2023/09/18 04:28:12;;;;;;;13.02;7.05;;;;;;;;;;5041425;28;20117;-58
2023/09/18 04:30:37;;;;;;;13.38;7.80;;;;;;;;;;5036101;28;20392;-58
2023/09/18 04:33:03;;;;;;;11.30;7.78;;;;;;;;;;5053171;28;20029;-58
2023/09/18 04:35:28;;;;;;;13.43;6.13;;;;;;;;;;5066316;28;20041;-60
2023/09/18 04:37:55;;;;;;;14.17;7.23;;;;;;;;;;5071221;28;20378;-60
2023/09/18 04:40:21;;;;;;;13.53;6.67;;;;;;;;;;5071213;28;20554;-59
2023/09/18 04:42:46;;;;;;;9.93;6.30;;;;;;;;;;5072829;28;20103;-59
2023/09/18 04:45:11;;;;;;;12.85;7.75;;;;;;;;;;5071274;28;20458;-59
2023/09/18 04:47:36;;;;;;;14.45;9.30;;;;;;;;;;5072352;28;20017;-61
2023/09/18 04:50:05;;;;;;;13.73;7.53;;;;;;;;;;5071735;28;20474;-57
2023/09/18 04:52:30;;;;;;;9.38;7.22;;;;;;;;;;5072841;28;20423;-60
2023/09/18 04:54:57;;;;;;;11.13;6.77;;;;;;;;;;5072356;28;20021;-60
2023/09/18 04:57:22;;;;;;;16.90;7.10;;;;;;;;;;5071355;28;20564;-61
2023/09/18 04:59:47;;;;;;;9.57;6.82;;;;;;;;;;5072571;28;20056;-60
2023/09/18 05:02:12;;;;;;;12.27;7.63;;;;;;;;;;5070579;28;20067;-62
2023/09/18 05:04:37;;;;;;;8.82;6.25;;;;;;;;;;5072419;28;20090;-61
2023/09/18 05:07:03;;;;;;;10.30;7.90;;;;;;;;;;5071130;28;20487;-58
2023/09/18 05:09:28;;;;;;;15.67;8.50;;;;;;;;;;5072300;28;20100;-58
2023/09/18 05:11:53;;;;;;;15.45;7.20;;;;;;;;;;5070781;28;20450;-60
2023/09/18 05:14:18;;;;;;;16.33;8.27;;;;;;;;;;5072205;28;20029;-58
2023/09/18 05:16:43;;;;;;;20.60;8.43;;;;;;;;;;5070285;28;20028;-60
2023/09/18 05:19:08;;;;;;;16.88;10.00;;;;;;;;;;5072373;28;20067;-58
2023/09/18 05:21:34;;;;;;;12.45;8.32;;;;;;;;;;5070692;28;20150;-59
2023/09/18 05:23:59;;;;;;;27.70;10.25;;;;;;;;;;5070798;28;20021;-58
2023/09/18 05:26:25;;;;;;;13.13;8.00;;;;;;;;;;5070607;28;20029;-59
2023/09/18 05:28:50;;;;;;;11.73;8.38;;;;;;;;;;5071981;28;20247;-59
2023/09/18 05:31:16;;;;;;;17.33;8.90;;;;;;;;;;5070357;28;20036;-66
2023/09/18 05:33:41;;;;;;;33.20;9.65;;;;;;;;;;5071489;28;20104;-59
2023/09/18 05:36:06;;;;;;;19.35;11.32;;;;;;;;;;5070059;28;20036;-59
2023/09/18 05:38:31;;;;;;;13.38;8.95;;;;;;;;;;5071172;28;20463;-58
2023/09/18 05:40:56;;;;;;;16.23;9.68;;;;;;;;;;5070000;28;20032;-61
2023/09/18 05:43:22;;;;;;;21.58;9.18;;;;;;;;;;5071645;28;20060;-59
2023/09/18 05:45:49;;;;;;;13.57;9.30;;;;;;;;;;5069781;28;20040;-58
2023/09/18 05:48:15;;;;;;;16.83;10.45;;;;;;;;;;5071597;28;20017;-59
2023/09/18 05:50:41;;;;;;;14.80;8.45;;;;;;;;;;5069722;28;20029;-58
2023/09/18 05:53:06;;;;;;;10.40;8.85;;;;;;;;;;5071311;28;20048;-58
2023/09/18 05:55:32;;;;;;;13.27;8.93;;;;;;;;;;5070169;28;20705;-59
2023/09/18 05:57:58;;;;;;;17.42;7.78;;;;;;;;;;5070288;28;20073;-59
2023/09/18 06:00:23;;;;;;;17.30;8.32;;;;;;;;;;5069595;28;20169;-58
2023/09/18 06:02:50;;;;;;;18.80;8.25;;;;;;;;;;5069326;28;20028;-59
2023/09/18 06:05:16;;;;;;;12.30;7.50;;;;;;;;;;5069222;28;20526;-72
2023/09/18 06:07:41;;;;;;;19.70;10.17;;;;;;;;;;5070489;28;20158;-59
2023/09/18 06:10:06;;;;;;;13.90;8.23;;;;;;;;;;5069267;28;20024;-58
2023/09/18 06:12:31;;;;;;;13.07;9.05;;;;;;;;;;5070605;28;20035;-59
2023/09/18 06:14:56;;;;;;;18.70;9.33;;;;;;;;;;5070277;28;20093;-58
2023/09/18 06:17:22;;;;;;;12.25;8.95;;;;;;;;;;5069653;28;20032;-58
2023/09/18 06:19:47;;;;;;;14.57;10.50;;;;;;;;;;5064774;28;20108;-59
2023/09/18 06:22:13;;;;;;;16.00;9.35;;;;;;;;;;5068867;28;20032;-59
2023/09/18 06:24:38;;;;;;;12.25;9.68;;;;;;;;;;5068968;28;20375;-58
2023/09/18 06:27:06;;;;;;;13.48;9.95;;;;;;;;;;5063600;28;20083;-59
2023/09/18 06:29:35;;;;;;;20.63;9.50;;;;;;;;;;5049995;28;20083;-61
2023/09/18 06:32:00;;;;;;;18.90;10.88;;;;;;;;;;5050417;28;20036;-59
2023/09/18 06:34:26;;;;;;;14.82;10.18;;;;;;;;;;5069580;28;20017;-59
2023/09/18 06:36:51;;;;;;;14.45;9.55;;;;;;;;;;5062266;28;20028;-59
2023/09/18 06:39:16;;;;;;;18.23;8.97;;;;;;;;;;5050407;28;20404;-62
2023/09/18 06:41:41;;;;;;;17.73;10.65;;;;;;;;;;5048615;28;21018;-58
2023/09/18 06:44:07;;;;;;;21.15;9.50;;;;;;;;;;5050270;28;20126;-58
2023/09/18 06:46:32;;;;;;;16.23;9.97;;;;;;;;;;5043949;28;20030;-58
2023/09/18 06:48:59;;;;;;;16.65;9.35;;;;;;;;;;5030456;28;21121;-58
2023/09/18 06:51:25;;;;;;;19.17;9.93;;;;;;;;;;5040170;28;20417;-58
2023/09/18 06:53:50;;;;;;;13.00;9.23;;;;;;;;;;5050108;28;20127;-58
2023/09/18 06:56:15;;;;;;;18.80;9.37;;;;;;;;;;5038961;28;20045;-58
2023/09/18 06:58:40;;;;;;;15.15;7.28;;;;;;;;;;5029730;28;20032;-59
2023/09/18 07:01:09;;;;;;;24.13;10.00;;;;;;;;;;5029004;28;20125;-59
2023/09/18 07:03:36;;;;;;;12.30;7.25;;;;;;;;;;5030171;28;20022;-58
2023/09/18 07:06:01;;;;;;;12.27;8.05;;;;;;;;;;5028458;28;20041;-58
2023/09/18 07:08:26;;;;;;;8.73;7.70;;;;;;;;;;5032215;28;20419;-59
2023/09/18 07:10:51;;;;;;;14.98;7.75;;;;;;;;;;5041898;28;20036;-58
2023/09/18 07:13:16;;;;;;;12.30;6.50;;;;;;;;;;5069707;28;20017;-59
2023/09/18 07:15:42;;;;;;;20.10;8.20;;;;;;;;;;5050469;28;20435;-59
2023/09/18 07:18:07;;;;;;;16.30;8.13;;;;;;;;;;5049908;28;20016;-58
2023/09/18 07:20:32;;;;;;;13.33;8.07;;;;;;;;;;5048368;28;20608;-58
2023/09/18 07:22:57;;;;;;;11.95;6.97;;;;;;;;;;5049231;28;20031;-58
2023/09/18 07:25:22;;;;;;;16.50;10.35;;;;;;;;;;5048818;28;20116;-58
2023/09/18 07:27:48;;;;;;;12.90;7.73;;;;;;;;;;5049847;28;20013;-59
2023/09/18 07:30:16;;;;;;;15.23;7.80;;;;;;;;;;5048598;28;20503;-58
2023/09/18 07:32:42;;;;;;;14.18;7.07;;;;;;;;;;5049928;28;20028;-58
2023/09/18 07:35:08;;;;;;;13.75;7.55;;;;;;;;;;5050149;28;20495;-58
2023/09/18 07:37:35;;;;;;;24.67;9.07;;;;;;;;;;5048082;28;20135;-58
2023/09/18 07:40:00;;;;;;;15.98;8.07;;;;;;;;;;5049926;28;20053;-58
2023/09/18 07:42:25;;;;;;;8.43;6.55;;;;;;;;;;5048656;28;20109;-58
2023/09/18 07:44:50;;;;;;;19.30;8.18;;;;;;;;;;5049445;28;20025;-59
2023/09/18 07:47:16;;;;;;;10.88;6.13;;;;;;;;;;5047397;28;20048;-59
2023/09/18 07:49:41;;;;;;;7.90;6.25;;;;;;;;;;5053923;28;20032;-58
2023/09/18 07:52:06;;;;;;;12.68;6.57;;;;;;;;;;5052280;28;20060;-58
2023/09/18 07:54:31;;;;;;;12.93;5.40;;;;;;;;;;5053550;28;20021;-59
2023/09/18 07:56:57;;;;;;;8.85;4.93;;;;;;;;;;5052128;28;20057;-58
2023/09/18 07:59:25;;;;;;;10.48;5.35;;;;;;;;;;5053743;28;20376;-58
2023/09/18 08:01:50;;;;;;;14.73;5.50;;;;;;;;;;5052298;28;20033;-58
2023/09/18 08:04:15;;;;;;;14.15;5.60;;;;;;;;;;5053588;28;20024;-58
2023/09/18 08:06:41;;;;;;;7.63;3.83;;;;;;;;;;5051619;28;20057;-58
2023/09/18 08:09:09;;;;;;;9.70;4.30;;;;;;;;;;5053639;28;20598;-58
2023/09/18 08:11:35;;;;;;;14.15;5.22;;;;;;;;;;5051966;28;20029;-59
2023/09/18 08:14:00;;;;;;;11.48;5.85;;;;;;;;;;5053128;28;20029;-59
2023/09/18 08:16:25;;;;;;;10.32;5.20;;;;;;;;;;5052108;28;20036;-58
2023/09/18 08:18:50;;;;;;;10.57;4.87;;;;;;;;;;5053467;28;20032;-58
2023/09/18 08:21:17;;;;;;;9.85;4.75;;;;;;;;;;5052966;28;21245;-62
2023/09/18 08:23:42;;;;;;;6.18;4.43;;;;;;;;;;5069005;28;20027;-58
2023/09/18 08:26:07;;;;;;;8.75;4.47;;;;;;;;;;5068991;28;20033;-58
2023/09/18 08:28:33;;;;;;;9.90;6.03;;;;;;;;;;5052570;28;20026;-59
2023/09/18 08:30:59;;;;;;;6.90;3.88;;;;;;;;;;5051709;28;20494;-58
2023/09/18 08:33:24;;;;;;;19.73;5.15;;;;;;;;;;5052843;28;20506;-58
2023/09/18 08:35:49;;;;;;;8.23;3.45;;;;;;;;;;5051121;28;20041;-58
2023/09/18 08:38:14;;;;;;;10.17;4.67;;;;;;;;;;5059768;28;20352;-58
2023/09/18 08:40:40;;;;;;;6.00;3.90;;;;;;;;;;5070637;28;20180;-58
2023/09/18 08:43:05;;;;;;;7.38;4.30;;;;;;;;;;5072483;28;20447;-58
2023/09/18 08:45:35;;;;;;;9.10;4.03;;;;;;;;;;5070972;28;20115;-58
2023/09/18 08:48:00;;;;;;;9.73;5.50;;;;;;;;;;5072870;28;20020;-58
2023/09/18 08:50:26;;;;;;;8.85;5.00;;;;;;;;;;5071325;28;20074;-58
2023/09/18 08:52:51;;;;;;;9.32;4.35;;;;;;;;;;5072726;28;20027;-58
2023/09/18 08:55:17;;;;;;;5.88;4.03;;;;;;;;;;5071336;28;20016;-58
2023/09/18 08:57:44;;;;;;;6.63;3.80;;;;;;;;;;5070995;28;20024;-58
2023/09/18 09:00:12;;;;;;;9.60;3.45;;;;;;;;;;5071287;28;20047;-62
2023/09/18 09:02:37;;;;;;;25.45;4.10;;;;;;;;;;5072173;28;20585;-58
2023/09/18 09:05:02;;;;;;;10.77;3.90;;;;;;;;;;5072297;28;20024;-58
2023/09/18 09:07:30;;;;;;;8.77;4.20;;;;;;;;;;5071146;28;20461;-59
2023/09/18 09:09:56;;;;;;;6.47;4.05;;;;;;;;;;5072624;28;20021;-58
2023/09/18 09:12:40;;;;;;;6.25;3.65;;;;;;;;;;5070701;28;20047;-58
2023/09/18 09:15:05;;;;;;;3.15;2.85;;;;;;;;;;5071031;28;20048;-58
2023/09/18 09:17:30;;;;;;;7.72;3.85;;;;;;;;;;5071991;28;20483;-59
2023/09/18 09:20:07;;;;;;;6.93;2.78;;;;;;;;;;5072262;28;20117;-59
2023/09/18 09:22:33;;;;;;;5.93;2.97;;;;;;;;;;5070773;28;20082;-59
2023/09/18 09:24:59;;;;;;;6.85;4.13;;;;;;;;;;5072221;28;20028;-58
2023/09/18 09:27:24;;;;;;;6.43;2.50;;;;;;;;;;5051010;28;20029;-58
2023/09/18 09:30:01;;;;;;;7.13;3.13;;;;;;;;;;5050606;28;20029;-58
2023/09/18 09:32:31;;;;;;;4.70;2.90;;;;;;;;;;5070182;28;20551;-58
2023/09/18 09:35:06;;;;;;;5.38;3.45;;;;;;;;;;5071579;28;20032;-59
2023/09/18 09:37:32;;;;;;;7.72;3.25;;;;;;;;;;5070557;28;20052;-58
2023/09/18 09:39:59;;;;;;;3.88;2.20;;;;;;;;;;5071815;28;20448;-58
2023/09/18 09:42:24;;;;;;;4.10;2.83;;;;;;;;;;5050454;28;20407;-58
2023/09/18 09:45:00;;;;;;;10.07;3.58;;;;;;;;;;5051859;28;20013;-58
2023/09/18 09:47:25;;;;;;;6.10;2.65;;;;;;;;;;5069960;28;20518;-58
2023/09/18 09:49:50;;;;;;;2.33;1.97;;;;;;;;;;5071132;28;20060;-58
2023/09/18 09:52:22;;;;;;;9.33;4.70;;;;;;;;;;5051509;28;20029;-58
2023/09/18 09:54:47;;;;;;;5.53;2.42;;;;;;;;;;5051152;28;20972;-58
2023/09/18 09:57:12;;;;;;;8.18;2.30;;;;;;;;;;5067624;28;20039;-58
2023/09/18 09:59:37;;;;;;;5.43;2.15;;;;;;;;;;5067269;28;20039;-59
2023/09/18 10:02:03;;;;;;;5.47;2.40;;;;;;;;;;5069396;28;20037;-58
2023/09/18 10:04:28;;;;;;;3.70;2.38;;;;;;;;;;5071050;28;20464;-58
2023/09/18 10:07:01;;;;;;;3.60;2.25;;;;;;;;;;5068956;28;20054;-58
2023/09/18 10:09:28;;;;;;;2.90;2.42;;;;;;;;;;5069422;28;20024;-59
2023/09/18 10:11:55;;;;;;;3.00;1.88;;;;;;;;;;5055008;28;20400;-58
2023/09/18 10:14:29;;;;;;;7.20;2.67;;;;;;;;;;5052448;28;20035;-58
2023/09/18 10:16:56;;;;;;;4.30;2.28;;;;;;;;;;5068622;28;20127;-58
2023/09/18 10:19:28;;;;;;;4.65;2.05;;;;;;;;;;5069888;28;20020;-58
2023/09/18 10:22:05;;;;;;;6.68;3.42;;;;;;;;;;5069310;28;20037;-58
2023/09/18 10:24:32;;;;;;;7.07;2.58;;;;;;;;;;5069159;28;20055;-58
2023/09/18 10:26:59;;;;;;;1.67;1.20;;;;;;;;;;5068024;28;20112;-59
2023/09/18 10:29:24;;;;;;;2.60;1.77;;;;;;;;;;5071110;28;20422;-68
2023/09/18 10:31:50;;;;;;;5.93;2.95;;;;;;;;;;5069001;28;20884;-58
2023/09/18 10:34:16;;;;;;;3.22;1.65;;;;;;;;;;5070411;28;20021;-58
2023/09/18 10:36:43;;;;;;;2.95;2.00;;;;;;;;;;5069178;28;20090;-58
2023/09/18 10:39:10;;;;;;;8.40;3.22;;;;;;;;;;5070675;28;20045;-58
2023/09/18 10:41:35;;;;;;;2.17;1.95;;;;;;;;;;5068836;28;20095;-58
2023/09/18 10:44:01;;;;;;;7.85;1.92;;;;;;;;;;5070494;28;20527;-71
2023/09/18 10:46:26;;;;;;;7.63;2.75;;;;;;;;;;5069375;28;20161;-58
2023/09/18 10:48:52;;;;;;;2.80;1.88;;;;;;;;;;5068590;28;20459;-58
2023/09/18 10:51:21;;;;;;;2.50;1.98;;;;;;;;;;5068888;28;20115;-59
2023/09/18 10:53:49;;;;;;;5.78;2.45;;;;;;;;;;5070182;28;20099;-58
2023/09/18 10:56:21;;;;;;;8.20;2.92;;;;;;;;;;5067123;28;20108;-57
2023/09/18 10:58:46;;;;;;;4.35;1.95;;;;;;;;;;5070206;28;20054;-58
2023/09/18 11:01:12;;;;;;;6.75;3.45;;;;;;;;;;5068941;28;20133;-57
2023/09/18 11:03:37;;;;;;;6.13;2.05;;;;;;;;;;5068225;28;20108;-59
2023/09/18 11:06:10;;;;;;;4.45;2.00;;;;;;;;;;5068741;28;20060;-59
2023/09/18 11:08:46;;;;;;;4.15;2.38;;;;;;;;;;5070151;28;20072;-71
2023/09/18 11:11:14;;;;;;;6.60;2.22;;;;;;;;;;5068766;28;20056;-70
2023/09/18 11:13:39;;;;;;;;;;;;;;;;;;5070813;28;20024;-58
2023/09/18 11:16:15;;;;;;;2.60;1.50;;;;;;;;;;5068994;28;20288;-58
2023/09/18 11:18:41;;;;;;;2.80;1.77;;;;;;;;;;5068337;28;20044;-58
2023/09/18 11:21:06;;;;;;;4.03;2.00;;;;;;;;;;5069049;28;20507;-58
2023/09/18 11:23:37;;;;;;;4.78;1.60;;;;;;;;;;5069165;28;20025;-59
2023/09/18 11:26:07;;;;;;;5.75;2.25;;;;;;;;;;5068596;28;20029;-59
2023/09/18 11:28:32;;;;;;;3.53;1.70;;;;;;;;;;5070010;28;20044;-58
2023/09/18 11:31:02;;;;;;;3.42;1.80;;;;;;;;;;5067470;28;20106;-59
2023/09/18 11:33:37;;;;;;;8.68;3.10;;;;;;;;;;5069634;28;20040;-59
2023/09/18 11:36:06;;;;;;;4.32;2.15;;;;;;;;;;5069009;28;20033;-62
2023/09/18 11:38:33;;;;;;;7.90;2.15;;;;;;;;;;5069898;28;20573;-61
2023/09/18 11:41:01;;;;;;;4.15;1.98;;;;;;;;;;5068609;28;20035;-58
2023/09/18 11:43:29;;;;;;;4.22;2.33;;;;;;;;;;5066216;28;20029;-59
2023/09/18 11:45:55;;;;;;;;;;;;;;;;;;5065005;28;20028;-58
2023/09/18 11:48:21;;;;;;;8.57;2.75;;;;;;;;;;5069469;28;20363;-58
2023/09/18 11:50:50;;;;;;;8.20;3.78;;;;;;;;;;5068412;28;20063;-59
2023/09/18 11:53:18;;;;;;;2.92;2.38;;;;;;;;;;5069852;28;20020;-58
2023/09/18 11:55:43;;;;;;;14.30;3.70;;;;;;;;;;5067779;28;20041;-59
2023/09/18 11:58:09;;;;;;;3.85;2.08;;;;;;;;;;5069668;28;20020;-58
2023/09/18 12:00:34;;;;;;;6.22;2.88;;;;;;;;;;5068166;28;20124;-58
2023/09/18 12:03:12;;;;;;;7.32;2.55;;;;;;;;;;5069692;28;20016;-58
2023/09/18 12:05:38;;;;;;;9.23;2.72;;;;;;;;;;5068176;28;20483;-58
2023/09/18 12:08:03;;;;;;;11.35;2.55;;;;;;;;;;5069252;28;20081;-58
2023/09/18 12:10:29;;;;;;;7.30;3.00;;;;;;;;;;5067395;28;20486;-58
2023/09/18 12:12:54;;;;;;;4.80;3.60;;;;;;;;;;5069167;28;20025;-57
2023/09/18 12:15:19;;;;;;;8.70;3.83;;;;;;;;;;5067782;28;20024;-58
2023/09/18 12:17:45;;;;;;;5.38;2.92;;;;;;;;;;5068754;28;20495;-58
2023/09/18 12:20:20;;;;;;;4.28;3.38;;;;;;;;;;5068020;28;20033;-59
2023/09/18 12:22:50;;;;;;;2.80;2.28;;;;;;;;;;5068184;28;20023;-59
2023/09/18 12:25:16;;;;;;;7.63;2.75;;;;;;;;;;5068054;28;20047;-59
2023/09/18 12:27:42;;;;;;;8.88;2.72;;;;;;;;;;5069734;28;20039;-58
2023/09/18 12:30:07;;;;;;;4.70;2.07;;;;;;;;;;5068600;28;20037;-58
2023/09/18 12:32:35;;;;;;;10.63;3.58;;;;;;;;;;5069304;28;20019;-58
2023/09/18 12:35:00;;;;;;;;;;;;;;;;;;5073218;28;20073;-58
2023/09/18 12:37:26;;;;;;;5.35;4.07;;;;;;;;;;5071815;28;19912;-58
2023/09/18 12:39:54;;;;;;;3.30;2.10;;;;;;;;;;5072584;28;20044;-58
2023/09/18 12:42:19;;;;;;;2.85;2.53;;;;;;;;;;5071598;28;20376;-58
2023/09/18 12:44:48;;;;;;;5.00;2.15;;;;;;;;;;5072772;28;20020;-58
2023/09/18 12:47:13;;;;;;;4.18;2.38;;;;;;;;;;5071019;28;20036;-58
2023/09/18 12:49:39;;;;;;;5.25;2.25;;;;;;;;;;5072853;28;20062;-59
2023/09/18 12:52:07;;;;;;;6.97;2.40;;;;;;;;;;5071552;28;20086;-59
2023/09/18 12:54:33;;;;;;;;;;;;;;;;;;5073119;28;20096;-59
2023/09/18 12:56:58;;;;;;;;;;;;;;;;;;5071859;28;19999;-59
2023/09/18 12:59:23;;;;;;;;;;;;;;;;;;5073462;28;20364;-58
2023/09/18 13:01:48;;;;;;;;;;;;;;;;;;5071287;28;19908;-58
2023/09/18 13:04:13;;;;;;;;;;;;;;;;;;5073444;28;19951;-58
2023/09/18 13:06:39;;;;;;;;;;;;;;;;;;5070286;28;20336;-59
2023/09/18 13:09:06;;;;;;;;;;;;;;;;;;5072783;28;19904;-59
2023/09/18 13:11:32;;;;;;;;;;;;;;;;;;5071535;28;19913;-69
2023/09/18 13:13:58;;;;;;;;;;;;;;;;;;5073067;28;19908;-58
2023/09/18 13:16:23;;;;;;;;;;;;;;;;;;5071046;28;19909;-58
2023/09/18 13:18:49;;;;;;;;;;;;;;;;;;5072529;28;19915;-58
2023/09/18 13:21:14;;;;;;;;;;;;;;;;;;5071596;28;19912;-58
2023/09/18 13:23:39;;;;;;;;;;;;;;;;;;5072275;28;20203;-59
2023/09/18 13:26:05;;;;;;;;;;;;;;;;;;5071289;28;19909;-59
2023/09/18 13:28:32;;;;;;;;;;;;;;;;;;5073110;28;19911;-59
2023/09/18 13:30:59;;;;;;;;;;;;;;;;;;5071158;28;20217;-59
2023/09/18 13:33:25;;;;;;;;;;;;;;;;;;5072971;28;20382;-59
2023/09/18 13:35:50;;;;;;;;;;;;;;;;;;5070756;28;20449;-58
2023/09/18 13:38:15;;;;;;;;;;;;;;;;;;5072291;28;19905;-58
2023/09/18 13:40:40;;;;;;;;;;;;;;;;;;5070867;28;19912;-59
2023/09/18 13:43:06;;;;;;;;;;;;;;;;;;5072710;28;19908;-58
2023/09/18 13:45:31;;;;;;;;;;;;;;;;;;5069665;28;19987;-66
2023/09/18 13:47:56;;;;;;;;;;;;;;;;;;5072193;28;19978;-58
2023/09/18 13:50:21;;;;;;;;;;;;;;;;;;5071111;28;19912;-59
2023/09/18 13:52:46;;;;;;;;;;;;;;;;;;5072275;28;19905;-58
2023/09/18 13:55:11;;;;;;;;;;;;;;;;;;5070339;28;20377;-59
2023/09/18 13:57:36;;;;;;;;;;;;;;;;;;5072195;28;19915;-59
2023/09/18 14:00:04;;;;;;;;;;;;;;;;;;5069749;28;19912;-59
2023/09/18 14:02:30;;;;;;;;;;;;;;;;;;5049919;28;19962;-58
2023/09/18 14:04:55;;;;;;;;;;;;;;;;;;5051623;28;19912;-58
2023/09/18 14:07:20;;;;;;;;;;;;;;;;;;5050580;28;20398;-59
2023/09/18 14:09:48;;;;;;;;;;;;;;;;;;5051198;28;19905;-58
2023/09/18 14:12:14;;;;;;;;;;;;;;;;;;5050630;28;19916;-59
2023/09/18 14:14:40;;;;;;;;;;;;;;;;;;5051572;28;20364;-60
2023/09/18 14:17:05;;;;;;;;;;;;;;;;;;5049954;28;19920;-59
2023/09/18 14:19:30;;;;;;;;;;;;;;;;;;5051880;28;19905;-61
2023/09/18 14:21:55;;;;;;;;;;;;;;;;;;5050252;28;20346;-59
2023/09/18 14:24:24;;;;;;;;;;;;;;;;;;5051683;28;19932;-58
2023/09/18 14:26:49;;;;;;;;;;;;;;;;;;5050036;28;19913;-59
2023/09/18 14:29:14;;;;;;;;;;;;;;;;;;5051736;28;19905;-59
2023/09/18 14:31:39;;;;;;;;;;;;;;;;;;5049765;28;20339;-58
2023/09/18 14:34:05;;;;;;;;;;;;;;;;;;5060894;28;20359;-58
2023/09/18 14:36:31;;;;;;;;;;;;;;;;;;5069685;28;19908;-59
2023/09/18 14:38:57;;;;;;;;;;;;;;;;;;5070769;28;19970;-59